Terminal Aerodrome Forecast
Issued by NWS

Home | Current Version | Previous Version | Text Only | Print | Product List | Glossary On
Versions: 1 2 3 4 5 6 7 8 9 10 11 12 13 14 15 16 17 18 19 20 21 22 23 24 25 26 27 28 29 30
000
FTUS41 KBUF 010500
TAFJHW
TAF
KJHW 010538Z 0106/0206 18004KT P6SM SKC
     FM010900 18004KT 2SM BR SKC
     FM011100 21008KT P6SM SKC
     FM011700 26006KT P6SM VCSH SCT040 SCT100
     FM011900 26006KT P6SM SCT040
     FM012200 00000KT P6SM BKN050
      AMD LTD TO CLD VIS AND WIND=

USA.gov is the U.S. government's official web portal to all federal, state and local government web resources and services.